createdAt,value
2023-04-15T00:01:12.121Z,0.80
2023-04-15T00:03:39.420Z,0.90
2023-04-15T00:06:06.323Z,0.70
2023-04-15T00:08:33.264Z,0.80
2023-04-15T00:11:05.904Z,0.60
2023-04-15T00:13:35.914Z,1.10
2023-04-15T00:16:02.745Z,0.70
2023-04-15T00:18:30.114Z,0.80
2023-04-15T00:20:56.859Z,0.75
2023-04-15T00:23:23.551Z,0.80
2023-04-15T00:25:51.007Z,0.80
2023-04-15T00:28:18.437Z,1.20
2023-04-15T00:30:45.866Z,0.85
2023-04-15T00:33:13.695Z,0.97
2023-04-15T00:35:40.712Z,0.80
2023-04-15T00:38:10.572Z,0.82
2023-04-15T00:40:37.884Z,0.80
2023-04-15T00:43:04.585Z,0.90
2023-04-15T00:45:31.937Z,0.90
2023-04-15T00:47:58.683Z,0.90
2023-04-15T00:50:25.483Z,0.85
2023-04-15T00:52:52.144Z,0.82
2023-04-15T00:55:19.281Z,1.00
2023-04-15T00:57:46.504Z,0.90
2023-04-15T01:00:13.610Z,0.90
2023-04-15T01:02:40.461Z,0.90
2023-04-15T01:05:08.420Z,1.02
2023-04-15T01:07:35.162Z,1.00
2023-04-15T01:10:03.938Z,1.17
2023-04-15T01:12:33.290Z,0.85
2023-04-15T01:15:00.376Z,0.95
2023-04-15T01:17:27.206Z,1.00
2023-04-15T01:19:56.894Z,0.90
2023-04-15T01:22:24.561Z,1.08
2023-04-15T01:25:02.425Z,0.90
2023-04-15T01:27:31.278Z,0.70
2023-04-15T01:29:58.392Z,0.77
2023-04-15T01:32:25.396Z,1.10
2023-04-15T01:35:10.871Z,1.10
2023-04-15T01:37:48.399Z,1.00
2023-04-15T01:40:17.395Z,0.80
2023-04-15T01:42:45.632Z,0.90
2023-04-15T01:45:14.121Z,1.20
2023-04-15T01:47:42.071Z,0.80
2023-04-15T01:50:11.185Z,0.90
2023-04-15T01:52:39.135Z,0.80
2023-04-15T01:55:08.556Z,0.90
2023-04-15T01:57:39.904Z,1.02
2023-04-15T02:00:08.504Z,1.13
2023-04-15T02:02:43.639Z,1.00
2023-04-15T02:05:11.837Z,0.95
2023-04-15T02:07:39.713Z,0.90
2023-04-15T02:10:07.941Z,1.00
2023-04-15T02:12:36.923Z,1.08
2023-04-15T02:15:05.633Z,1.00
2023-04-15T02:17:39.395Z,1.05
2023-04-15T02:20:09.408Z,1.10
2023-04-15T02:22:37.625Z,1.30
2023-04-15T02:25:06.144Z,1.00
2023-04-15T02:27:34.125Z,0.90
2023-04-15T02:30:03.156Z,1.23
2023-04-15T02:32:31.279Z,0.80
2023-04-15T02:35:08.967Z,1.05
2023-04-15T02:37:41.706Z,0.90
2023-04-15T02:40:13.935Z,1.20
2023-04-15T02:42:46.277Z,0.90
2023-04-15T02:45:16.913Z,0.90
2023-04-15T02:47:46.886Z,1.08
2023-04-15T02:50:15.195Z,1.10
2023-04-15T02:52:44.655Z,1.27
2023-04-15T02:55:12.688Z,1.30
2023-04-15T02:57:41.257Z,1.20
2023-04-15T03:00:12.058Z,1.10
2023-04-15T03:02:43.931Z,1.23
2023-04-15T03:05:13.828Z,1.13
2023-04-15T03:07:47.533Z,1.25
2023-04-15T03:10:15.575Z,1.30
2023-04-15T03:12:43.493Z,2.15
2023-04-15T03:15:16.787Z,1.40
2023-04-15T03:17:49.634Z,1.52
2023-04-15T03:20:18.432Z,1.40
2023-04-15T03:22:46.608Z,2.55
2023-04-15T03:25:14.582Z,1.90
2023-04-15T03:27:42.658Z,1.37
2023-04-15T03:30:11.203Z,1.48
2023-04-15T03:32:40.154Z,1.55
2023-04-15T03:35:09.896Z,1.60
2023-04-15T03:37:37.797Z,1.38
2023-04-15T03:40:06.258Z,1.10
2023-04-15T03:42:34.257Z,1.58
2023-04-15T03:45:02.162Z,1.70
2023-04-15T03:47:30.068Z,1.45
2023-04-15T03:49:57.978Z,1.70
2023-04-15T03:52:26.076Z,1.30
2023-04-15T03:54:53.909Z,1.67
2023-04-15T03:57:21.817Z,1.42
2023-04-15T03:59:49.741Z,1.63
2023-04-15T04:02:17.955Z,1.60
2023-04-15T04:04:46.463Z,1.47
2023-04-15T04:07:18.339Z,1.33
2023-04-15T04:09:47.400Z,1.60
2023-04-15T04:12:15.609Z,1.50
2023-04-15T04:14:43.649Z,1.70
2023-04-15T04:17:11.853Z,1.70
2023-04-15T04:19:39.809Z,1.52
2023-04-15T04:22:07.864Z,1.30
2023-04-15T04:24:35.802Z,1.40
2023-04-15T04:27:03.769Z,1.30
2023-04-15T04:29:31.754Z,1.37
2023-04-15T04:31:59.824Z,1.65
2023-04-15T04:34:27.907Z,1.90
2023-04-15T04:36:56.018Z,2.00
2023-04-15T04:39:23.927Z,1.80
2023-04-15T04:41:54.603Z,1.63
2023-04-15T04:44:22.456Z,1.77
2023-04-15T04:46:52.681Z,1.90
2023-04-15T04:49:20.608Z,1.50
2023-04-15T04:51:48.954Z,1.88
2023-04-15T04:54:17.624Z,1.50
2023-04-15T04:56:45.696Z,1.58
2023-04-15T04:59:13.940Z,1.77
2023-04-15T05:01:42.072Z,1.70
2023-04-15T05:04:10.100Z,1.70
2023-04-15T05:06:38.125Z,1.50
2023-04-15T05:09:06.122Z,1.95
2023-04-15T05:11:33.978Z,2.38
2023-04-15T05:14:02.428Z,2.08
2023-04-15T05:16:30.464Z,1.85
2023-04-15T05:18:58.427Z,1.83
2023-04-15T05:21:27.733Z,1.70
2023-04-15T05:23:55.684Z,2.30
2023-04-15T05:26:24.382Z,2.10
2023-04-15T05:28:52.300Z,2.58
2023-04-15T05:31:20.511Z,2.30
2023-04-15T05:33:48.531Z,2.53
2023-04-15T05:36:16.589Z,2.20
2023-04-15T05:38:44.533Z,2.78
2023-04-15T05:41:12.446Z,2.42
2023-04-15T05:43:40.576Z,2.47
2023-04-15T05:46:08.685Z,2.00
2023-04-15T05:48:36.802Z,2.17
2023-04-15T05:51:04.952Z,2.33
2023-04-15T05:53:32.941Z,2.50
2023-04-15T05:56:00.811Z,2.80
2023-04-15T05:58:28.676Z,2.70
2023-04-15T06:00:57.054Z,2.80
2023-04-15T06:03:25.567Z,2.47
2023-04-15T06:05:56.400Z,2.70
2023-04-15T06:08:24.370Z,2.53
2023-04-15T06:10:53.229Z,2.40
2023-04-15T06:13:21.484Z,3.05
2023-04-15T06:15:49.524Z,2.70
2023-04-15T06:18:17.461Z,2.65
2023-04-15T06:20:45.548Z,2.37
2023-04-15T06:23:13.428Z,3.00
2023-04-15T06:25:41.627Z,3.00
2023-04-15T06:28:09.702Z,2.90
2023-04-15T06:30:38.513Z,2.58
2023-04-15T06:33:06.569Z,3.20
2023-04-15T06:35:37.056Z,2.92
2023-04-15T06:38:05.395Z,2.80
2023-04-15T06:40:33.666Z,2.42
2023-04-15T06:43:01.883Z,3.20
2023-04-15T06:45:30.685Z,3.13
2023-04-15T06:47:58.611Z,3.22
2023-04-15T06:50:27.435Z,3.42
2023-04-15T06:52:56.287Z,2.95
2023-04-15T06:55:24.275Z,3.63
2023-04-15T06:57:52.384Z,3.60
2023-04-15T07:00:20.424Z,2.75
2023-04-15T07:02:48.733Z,3.17
2023-04-15T07:05:16.786Z,3.00
2023-04-15T07:07:45.701Z,2.95
2023-04-15T07:10:14.964Z,2.95
2023-04-15T07:12:43.120Z,2.88
2023-04-15T07:15:11.297Z,2.88
2023-04-15T07:17:39.492Z,3.38
2023-04-15T07:20:08.327Z,3.05
2023-04-15T07:22:36.588Z,3.40
2023-04-15T07:25:04.867Z,2.90
2023-04-15T07:27:33.137Z,2.90
2023-04-15T07:30:01.003Z,3.75
2023-04-15T07:32:28.886Z,3.35
2023-04-15T07:34:57.046Z,3.10
2023-04-15T07:37:25.065Z,3.10
2023-04-15T07:39:53.110Z,3.17
2023-04-15T07:42:22.198Z,2.90
2023-04-15T07:44:50.302Z,3.00
2023-04-15T07:47:18.469Z,2.80
2023-04-15T07:49:46.387Z,2.70
2023-04-15T07:52:14.395Z,2.90
2023-04-15T07:54:42.421Z,3.45
2023-04-15T07:57:10.300Z,3.03
2023-04-15T07:59:38.359Z,3.40
2023-04-15T08:02:06.464Z,3.55
2023-04-15T08:04:34.620Z,3.42
2023-04-15T08:07:04.087Z,2.60
2023-04-15T08:09:32.054Z,3.13
2023-04-15T08:12:00.117Z,2.53
2023-04-15T08:14:29.525Z,2.20
2023-04-15T08:16:57.424Z,2.80
2023-04-15T08:19:25.353Z,2.20
2023-04-15T08:21:53.287Z,2.30
2023-04-15T08:24:22.753Z,2.50
2023-04-15T08:26:53.552Z,2.30
2023-04-15T08:29:21.501Z,2.75
2023-04-15T08:31:49.495Z,2.38
2023-04-15T08:34:18.196Z,2.00
2023-04-15T08:36:46.519Z,2.53
2023-04-15T08:39:14.491Z,2.42
2023-04-15T08:41:56.586Z,2.53
2023-04-15T08:44:25.872Z,2.53
2023-04-15T08:46:55.500Z,2.38
2023-04-15T08:49:27.037Z,2.50
2023-04-15T08:51:58.349Z,2.40
2023-04-15T08:54:28.089Z,2.40
2023-04-15T08:56:57.866Z,2.47
2023-04-15T08:59:25.855Z,2.50
2023-04-15T09:01:55.434Z,2.35
2023-04-15T09:04:23.314Z,2.40
2023-04-15T09:06:52.233Z,2.78
2023-04-15T09:09:20.259Z,3.42
2023-04-15T09:11:49.997Z,2.53
2023-04-15T09:14:18.338Z,2.40
2023-04-15T09:17:00.820Z,2.30
2023-04-15T09:19:29.614Z,2.25
2023-04-15T09:21:59.602Z,3.08
2023-04-15T09:24:39.798Z,2.78
2023-04-15T09:27:07.813Z,2.80
2023-04-15T09:29:37.060Z,2.47
2023-04-15T09:32:13.587Z,2.60
2023-04-15T09:34:41.881Z,2.40
2023-04-15T09:37:10.988Z,2.30
2023-04-15T09:39:50.495Z,2.70
2023-04-15T09:42:24.612Z,2.80
2023-04-15T09:44:56.010Z,36.75
2023-04-15T09:47:28.443Z,23.77
2023-04-15T09:49:57.880Z,7.95
2023-04-15T09:52:26.120Z,5.87
2023-04-15T09:54:58.699Z,2.25
2023-04-15T09:57:34.821Z,1.80
2023-04-15T10:00:11.502Z,2.30
2023-04-15T10:02:42.266Z,4.60
2023-04-15T10:05:16.433Z,3.03
2023-04-15T10:07:44.437Z,2.10
2023-04-15T10:10:13.485Z,2.60
2023-04-15T10:12:42.211Z,2.25
2023-04-15T10:15:16.713Z,2.22
2023-04-15T10:17:45.823Z,2.00
2023-04-15T10:20:15.053Z,2.08
2023-04-15T10:22:45.178Z,1.90
2023-04-15T10:25:15.654Z,2.53
2023-04-15T10:27:43.652Z,4.88
2023-04-15T10:30:12.534Z,8.00
2023-04-15T10:32:41.424Z,6.65
2023-04-15T10:35:09.742Z,2.58
2023-04-15T10:37:39.005Z,1.73
2023-04-15T10:40:31.330Z,2.30
2023-04-15T10:43:01.593Z,2.73
2023-04-15T10:45:37.723Z,1.98
2023-04-15T10:48:08.438Z,2.05
2023-04-15T10:50:37.695Z,2.42
2023-04-15T10:53:06.114Z,2.67
2023-04-15T10:55:34.679Z,2.30
2023-04-15T10:58:03.086Z,2.65
2023-04-15T11:00:32.814Z,3.92
2023-04-15T11:03:09.757Z,2.55
2023-04-15T11:05:53.979Z,2.78
2023-04-15T11:08:53.697Z,3.13
2023-04-15T11:11:21.694Z,2.65
2023-04-15T11:13:52.459Z,2.65
2023-04-15T11:16:21.531Z,2.47
2023-04-15T11:18:56.081Z,2.58
2023-04-15T11:21:26.336Z,3.27
2023-04-15T11:23:54.241Z,3.10
2023-04-15T11:26:27.173Z,3.70
2023-04-15T11:28:55.162Z,3.22
2023-04-15T11:31:27.837Z,3.20
2023-04-15T11:33:59.002Z,3.13
2023-04-15T11:36:28.538Z,3.47
2023-04-15T11:38:58.332Z,2.90
2023-04-15T11:41:26.369Z,3.55
2023-04-15T11:43:54.318Z,3.65
2023-04-15T11:46:29.214Z,2.80
2023-04-15T11:48:57.108Z,3.28
2023-04-15T11:51:25.054Z,3.50
2023-04-15T11:53:52.112Z,3.63
2023-04-15T11:56:24.546Z,3.35
2023-04-15T11:58:59.740Z,3.83
2023-04-15T12:01:33.289Z,3.13
2023-04-15T12:04:01.539Z,3.35
2023-04-15T12:06:35.175Z,3.67
2023-04-15T12:09:09.754Z,4.25
2023-04-15T12:11:36.362Z,3.07
2023-04-15T12:14:06.452Z,3.28
2023-04-15T12:16:48.288Z,3.75
2023-04-15T12:19:28.701Z,3.40
2023-04-15T12:22:01.436Z,3.65
2023-04-15T12:24:30.962Z,3.03
2023-04-15T12:27:01.807Z,3.17
2023-04-15T12:29:30.420Z,2.95
2023-04-15T12:32:14.549Z,3.90
2023-04-15T12:34:50.859Z,3.20
2023-04-15T12:37:17.754Z,3.10
2023-04-15T12:39:48.867Z,3.30
2023-04-15T12:42:16.991Z,3.40
2023-04-15T12:44:43.915Z,3.85
2023-04-15T12:47:11.474Z,3.58
2023-04-15T12:49:38.572Z,3.43
2023-04-15T12:52:05.665Z,3.47
2023-04-15T12:54:32.515Z,3.08
2023-04-15T12:56:59.563Z,3.35
2023-04-15T12:59:27.212Z,3.20
2023-04-15T13:01:54.612Z,4.20
2023-04-15T13:04:21.962Z,3.00
2023-04-15T13:06:48.874Z,3.97
2023-04-15T13:09:15.803Z,3.03
2023-04-15T13:11:42.857Z,3.63
2023-04-15T13:14:11.522Z,4.27
2023-04-15T13:16:39.670Z,3.33
2023-04-15T13:19:06.550Z,3.50
2023-04-15T13:21:35.705Z,4.10
2023-04-15T13:24:04.907Z,3.60
2023-04-15T13:26:32.340Z,3.03
2023-04-15T13:28:59.445Z,3.47
2023-04-15T13:31:26.343Z,3.00
2023-04-15T13:33:53.291Z,3.67
2023-04-15T13:36:20.059Z,3.13
2023-04-15T13:38:48.043Z,3.00
2023-04-15T13:41:16.459Z,2.95
2023-04-15T13:43:43.377Z,3.00
2023-04-15T13:46:10.436Z,3.13
2023-04-15T13:48:37.153Z,2.78
2023-04-15T13:51:03.867Z,3.23
2023-04-15T13:53:37.772Z,3.00
2023-04-15T13:56:09.323Z,3.00
2023-04-15T13:58:37.030Z,4.03
2023-04-15T14:01:05.710Z,3.47
2023-04-15T14:03:34.031Z,3.73
2023-04-15T14:06:01.082Z,3.10
2023-04-15T14:08:27.777Z,3.35
2023-04-15T14:10:54.394Z,3.60
2023-04-15T14:13:21.081Z,2.90
2023-04-15T14:15:47.713Z,3.00
2023-04-15T14:18:14.553Z,3.30
2023-04-15T14:20:41.191Z,3.05
2023-04-15T14:23:07.970Z,3.95
2023-04-15T14:25:34.618Z,2.78
2023-04-15T14:28:02.398Z,3.40
2023-04-15T14:30:29.030Z,3.20
2023-04-15T14:32:56.191Z,3.28
2023-04-15T14:35:24.516Z,4.28
2023-04-15T14:37:51.367Z,3.13
2023-04-15T14:40:18.379Z,3.10
2023-04-15T14:42:45.313Z,4.55
2023-04-15T14:45:12.067Z,4.10
2023-04-15T14:47:38.836Z,4.45
2023-04-15T14:50:05.968Z,4.68
2023-04-15T14:52:39.032Z,3.60
2023-04-15T14:55:13.175Z,3.55
2023-04-15T14:57:41.647Z,3.42
2023-04-15T15:00:10.455Z,3.58
2023-04-15T15:02:40.253Z,2.70
2023-04-15T15:05:08.559Z,3.00
2023-04-15T15:07:37.157Z,3.10
2023-04-15T15:10:04.560Z,3.40
2023-04-15T15:12:31.154Z,3.00
2023-04-15T15:14:57.925Z,3.42
2023-04-15T15:17:24.616Z,2.70
2023-04-15T15:19:51.524Z,3.10
2023-04-15T15:22:20.780Z,3.28
2023-04-15T15:24:48.320Z,2.92
2023-04-15T15:27:15.001Z,3.28
2023-04-15T15:29:41.621Z,3.10
2023-04-15T15:32:08.211Z,2.80
2023-04-15T15:34:34.918Z,3.40
2023-04-15T15:37:01.954Z,2.90
2023-04-15T15:39:28.757Z,3.08
2023-04-15T15:41:55.417Z,3.37
2023-04-15T15:44:22.216Z,2.63
2023-04-15T15:46:50.442Z,2.90
2023-04-15T15:49:17.270Z,3.00
2023-04-15T15:51:43.967Z,3.20
2023-04-15T15:54:10.731Z,3.60
2023-04-15T15:56:39.450Z,3.13
2023-04-15T15:59:06.315Z,3.17
2023-04-15T16:01:33.311Z,3.63
2023-04-15T16:04:00.821Z,3.50
2023-04-15T16:06:28.278Z,3.63
2023-04-15T16:08:55.089Z,3.58
2023-04-15T16:11:21.737Z,3.63
2023-04-15T16:13:48.460Z,3.40
2023-04-15T16:16:15.289Z,3.20
2023-04-15T16:18:42.030Z,3.50
2023-04-15T16:21:08.650Z,2.88
2023-04-15T16:23:36.707Z,3.50
2023-04-15T16:26:03.512Z,3.10
2023-04-15T16:28:30.263Z,3.30
2023-04-15T16:30:57.231Z,3.63
2023-04-15T16:33:24.175Z,3.28
2023-04-15T16:35:51.465Z,3.33
2023-04-15T16:38:18.148Z,3.85
2023-04-15T16:40:46.074Z,3.25
2023-04-15T16:43:12.677Z,3.30
2023-04-15T16:45:39.291Z,4.05
2023-04-15T16:48:06.303Z,3.38
2023-04-15T16:50:33.013Z,3.10
2023-04-15T16:52:59.712Z,3.85
2023-04-15T16:55:26.809Z,3.43
2023-04-15T16:58:02.230Z,3.22
2023-04-15T17:00:31.383Z,3.80
2023-04-15T17:02:59.076Z,3.50
2023-04-15T17:05:27.627Z,4.60
2023-04-15T17:07:54.768Z,4.30
2023-04-15T17:10:21.526Z,4.00
2023-04-15T17:12:49.754Z,3.47
2023-04-15T17:15:16.559Z,4.65
2023-04-15T17:17:46.746Z,4.97
2023-04-15T17:20:13.961Z,4.03
2023-04-15T17:22:41.068Z,4.03
2023-04-15T17:25:08.212Z,4.55
2023-04-15T17:27:40.988Z,5.05
2023-04-15T17:30:14.473Z,4.07
2023-04-15T17:33:01.712Z,4.67
2023-04-15T17:35:48.381Z,10.85
2023-04-15T17:38:35.009Z,11.82
2023-04-15T17:41:21.672Z,4.20
2023-04-15T17:44:08.283Z,8.00
2023-04-15T17:46:55.046Z,10.70
2023-04-15T17:49:41.877Z,5.20
2023-04-15T17:52:28.892Z,6.40
2023-04-15T17:55:15.650Z,6.40
2023-04-15T17:58:02.321Z,9.15
2023-04-15T18:00:49.105Z,6.53
2023-04-15T18:03:35.922Z,4.50
2023-04-15T18:06:22.724Z,5.72
2023-04-15T18:09:09.471Z,4.68
2023-04-15T18:11:57.229Z,5.88
2023-04-15T18:14:43.847Z,4.53
2023-04-15T18:17:30.807Z,6.65
2023-04-15T18:20:14.958Z,5.50
2023-04-15T18:22:43.902Z,4.45
2023-04-15T18:25:10.848Z,4.93
2023-04-15T18:27:40.717Z,6.30
2023-04-15T18:30:09.299Z,3.65
2023-04-15T18:32:36.111Z,4.75
2023-04-15T18:35:05.637Z,3.60
2023-04-15T18:37:32.772Z,5.90
2023-04-15T18:39:59.576Z,5.97
2023-04-15T18:42:26.295Z,4.45
2023-04-15T18:44:53.416Z,4.47
2023-04-15T18:47:20.047Z,8.13
2023-04-15T18:49:46.793Z,3.90
2023-04-15T18:52:13.472Z,6.70
2023-04-15T18:54:40.072Z,11.40
2023-04-15T18:57:06.937Z,5.38
2023-04-15T18:59:34.683Z,8.07
2023-04-15T19:02:03.460Z,12.02
2023-04-15T19:04:30.546Z,6.73
2023-04-15T19:06:58.771Z,4.97
2023-04-15T19:09:26.083Z,3.47
2023-04-15T19:11:52.640Z,3.42
2023-04-15T19:14:19.329Z,3.58
2023-04-15T19:16:46.060Z,4.60
2023-04-15T19:19:14.507Z,4.03
2023-04-15T19:21:41.742Z,3.58
2023-04-15T19:24:08.574Z,3.63
2023-04-15T19:26:36.811Z,3.78
2023-04-15T19:29:03.746Z,4.07
2023-04-15T19:31:30.735Z,4.03
2023-04-15T19:33:57.337Z,4.20
2023-04-15T19:36:24.113Z,4.15
2023-04-15T19:38:50.927Z,4.22
2023-04-15T19:41:17.595Z,4.13
2023-04-15T19:43:44.262Z,3.45
2023-04-15T19:46:13.256Z,3.33
2023-04-15T19:48:40.258Z,4.05
2023-04-15T19:51:06.908Z,3.95
2023-04-15T19:53:33.575Z,3.60
2023-04-15T19:56:00.371Z,6.75
2023-04-15T19:58:27.020Z,6.68
2023-04-15T20:00:53.618Z,5.40
2023-04-15T20:03:20.940Z,6.35
2023-04-15T20:05:47.716Z,3.40
2023-04-15T20:08:14.374Z,3.65
2023-04-15T20:10:41.049Z,3.55
2023-04-15T20:13:07.878Z,3.20
2023-04-15T20:15:34.679Z,4.18
2023-04-15T20:18:01.558Z,3.30
2023-04-15T20:20:28.251Z,3.08
2023-04-15T20:22:54.944Z,2.90
2023-04-15T20:25:21.577Z,2.70
2023-04-15T20:27:48.326Z,2.78
2023-04-15T20:30:14.988Z,3.47
2023-04-15T20:32:41.690Z,3.30
2023-04-15T20:35:08.509Z,5.45
2023-04-15T20:37:37.540Z,3.65
2023-04-15T20:40:04.521Z,3.92
2023-04-15T20:42:34.634Z,3.83
2023-04-15T20:45:02.283Z,4.35
2023-04-15T20:47:29.253Z,3.50
2023-04-15T20:49:56.245Z,3.05
2023-04-15T20:52:22.906Z,3.47
2023-04-15T20:54:50.139Z,3.60
2023-04-15T20:57:17.232Z,3.00
2023-04-15T20:59:43.953Z,3.30
2023-04-15T21:02:10.880Z,3.50
2023-04-15T21:04:38.421Z,3.08
2023-04-15T21:07:05.077Z,3.07
2023-04-15T21:09:31.812Z,3.15
2023-04-15T21:12:01.706Z,3.20
2023-04-15T21:14:29.037Z,2.92
2023-04-15T21:16:58.238Z,3.10
2023-04-15T21:19:25.046Z,3.50
2023-04-15T21:21:52.256Z,2.97
2023-04-15T21:24:18.984Z,3.80
2023-04-15T21:26:45.568Z,3.15
2023-04-15T21:29:12.410Z,4.72
2023-04-15T21:31:40.204Z,3.47
2023-04-15T21:34:06.941Z,3.90
2023-04-15T21:36:34.304Z,3.22
2023-04-15T21:39:02.467Z,3.22
2023-04-15T21:41:29.563Z,3.78
2023-04-15T21:43:56.234Z,4.50
2023-04-15T21:46:25.696Z,5.20
2023-04-15T21:48:59.898Z,4.07
2023-04-15T21:51:26.895Z,3.70
2023-04-15T21:53:53.748Z,4.43
2023-04-15T21:56:23.134Z,4.67
2023-04-15T21:58:50.100Z,4.00
2023-04-15T22:01:17.496Z,4.20
2023-04-15T22:03:44.454Z,3.88
2023-04-15T22:06:11.542Z,4.22
2023-04-15T22:08:48.277Z,4.13
2023-04-15T22:11:26.445Z,4.13
2023-04-15T22:13:53.996Z,4.20
2023-04-15T22:16:20.683Z,5.50
2023-04-15T22:18:47.409Z,4.75
2023-04-15T22:21:14.215Z,8.03
2023-04-15T22:23:41.184Z,4.60
2023-04-15T22:26:07.932Z,5.53
2023-04-15T22:28:34.553Z,5.85
2023-04-15T22:31:02.530Z,4.95
2023-04-15T22:33:29.507Z,5.27
2023-04-15T22:35:56.638Z,4.75
2023-04-15T22:38:24.038Z,5.38
2023-04-15T22:40:53.812Z,4.18
2023-04-15T22:43:20.573Z,4.38
2023-04-15T22:45:51.132Z,5.03
2023-04-15T22:48:18.765Z,3.42
2023-04-15T22:50:45.792Z,3.47
2023-04-15T22:53:12.611Z,3.47
2023-04-15T22:55:39.253Z,4.82
2023-04-15T22:58:05.947Z,5.30
2023-04-15T23:00:32.630Z,3.78
2023-04-15T23:02:59.475Z,4.30
2023-04-15T23:05:26.369Z,3.60
2023-04-15T23:07:53.148Z,4.55
2023-04-15T23:10:19.757Z,4.80
2023-04-15T23:12:46.808Z,4.40
2023-04-15T23:15:13.462Z,4.10
2023-04-15T23:17:42.159Z,3.90
2023-04-15T23:20:09.307Z,3.60
2023-04-15T23:22:38.838Z,3.50
2023-04-15T23:25:05.877Z,3.33
2023-04-15T23:27:32.570Z,3.60
2023-04-15T23:29:59.227Z,3.08
2023-04-15T23:32:27.338Z,3.28
2023-04-15T23:34:54.279Z,2.60
2023-04-15T23:37:20.973Z,2.92
2023-04-15T23:39:47.592Z,3.15
2023-04-15T23:42:14.277Z,2.58
2023-04-15T23:44:40.892Z,3.45
2023-04-15T23:47:07.552Z,3.00
2023-04-15T23:49:34.227Z,3.00
2023-04-15T23:52:00.864Z,3.30
2023-04-15T23:54:27.474Z,3.75
2023-04-15T23:56:54.071Z,3.28
2023-04-15T23:59:20.827Z,3.17
